createdAt,value
2022-12-20T00:00:24.738Z,99680.36
2022-12-20T00:05:26.508Z,99673.37
2022-12-20T00:10:28.264Z,99661.58
2022-12-20T00:15:31.397Z,99652.18
2022-12-20T00:20:33.274Z,99655.27
2022-12-20T00:25:34.984Z,99653.21
2022-12-20T00:30:36.773Z,99650.31
2022-12-20T00:35:43.211Z,99644.83
2022-12-20T00:40:44.965Z,99643.64
2022-12-20T00:45:46.692Z,99627.56
2022-12-20T00:50:48.786Z,99631.33
2022-12-20T00:55:50.549Z,99667.73
2022-12-20T01:00:56.545Z,99646.37
2022-12-20T01:06:02.016Z,99655.60
2022-12-20T01:11:25.123Z,99654.23
2022-12-20T01:16:34.748Z,99646.73
2022-12-20T01:21:38.212Z,99634.75
2022-12-20T01:26:40.253Z,99640.73
2022-12-20T01:31:42.989Z,99643.63
2022-12-20T01:36:45.193Z,99621.59
2022-12-20T01:41:47.394Z,99606.38
2022-12-20T01:46:50.819Z,99587.58
2022-12-20T01:52:08.902Z,99581.40
2022-12-20T01:57:12.701Z,99582.94
2022-12-20T02:02:14.692Z,99592.00
2022-12-20T02:07:25.066Z,99611.82
2022-12-20T02:12:34.364Z,99602.94
2022-12-20T02:17:49.312Z,99615.08
2022-12-20T02:23:22.241Z,99602.61
2022-12-20T02:28:52.627Z,99580.23
2022-12-20T02:33:57.434Z,99581.61
2022-12-20T02:38:59.159Z,99586.40
2022-12-20T02:44:35.424Z,99585.36
2022-12-20T02:49:41.273Z,99587.60
2022-12-20T02:54:43.602Z,99573.92
2022-12-20T03:00:04.105Z,99573.08
2022-12-20T03:05:07.541Z,99559.06
2022-12-20T03:10:10.654Z,99542.84
2022-12-20T03:15:13.272Z,99538.91
2022-12-20T03:20:15.415Z,99544.05
2022-12-20T03:25:17.765Z,99546.77
2022-12-20T03:30:19.546Z,99560.61
2022-12-20T03:35:22.044Z,99564.52
2022-12-20T03:40:23.937Z,99554.11
2022-12-20T03:45:25.993Z,99559.76
2022-12-20T03:50:27.881Z,99565.40
2022-12-20T03:55:29.784Z,99554.48
2022-12-20T04:00:31.793Z,99559.59
2022-12-20T04:05:45.865Z,99548.66
2022-12-20T04:11:06.906Z,99553.27
2022-12-20T04:16:12.065Z,99552.07
2022-12-20T04:21:14.975Z,99552.58
2022-12-20T04:26:19.743Z,99551.55
2022-12-20T04:31:24.311Z,99548.47
2022-12-20T04:36:27.289Z,99544.55
2022-12-20T04:41:29.661Z,99537.88
2022-12-20T04:46:34.935Z,99539.58
2022-12-20T04:51:37.732Z,99537.02
2022-12-20T04:56:40.871Z,99533.10
2022-12-20T05:01:47.649Z,99522.50
2022-12-20T05:06:56.177Z,99514.46
2022-12-20T05:11:58.320Z,99501.66
2022-12-20T05:17:00.240Z,99508.50
2022-12-20T05:22:21.240Z,99507.81
2022-12-20T05:27:36.619Z,99508.84
2022-12-20T05:32:38.910Z,99505.08
2022-12-20T05:37:40.933Z,99511.58
2022-12-20T05:42:48.939Z,99510.03
2022-12-20T05:47:51.285Z,99501.14
2022-12-20T05:52:53.356Z,99484.23
2022-12-20T05:57:55.531Z,99485.61
2022-12-20T06:03:06.800Z,99489.03
2022-12-20T06:08:11.846Z,99491.77
2022-12-20T06:13:13.982Z,99498.08
2022-12-20T06:18:15.980Z,99503.05
2022-12-20T06:23:18.552Z,99490.41
2022-12-20T06:28:29.857Z,99483.58
2022-12-20T06:33:31.778Z,99483.73
2022-12-20T06:38:33.898Z,99487.84
2022-12-20T06:43:35.955Z,99495.69
2022-12-20T06:48:37.983Z,99504.77
2022-12-20T06:53:41.976Z,99500.13
2022-12-20T06:58:46.934Z,99507.65
2022-12-20T07:03:48.998Z,99507.80
2022-12-20T07:08:50.823Z,99515.98
2022-12-20T07:13:56.985Z,99514.24
2022-12-20T07:18:58.831Z,99503.98
2022-12-20T07:24:00.605Z,99503.95
2022-12-20T07:29:02.354Z,99503.05
2022-12-20T07:34:04.079Z,99496.17
2022-12-20T07:39:05.931Z,99487.92
2022-12-20T07:44:07.691Z,99508.89
2022-12-20T07:49:09.861Z,99505.77
2022-12-20T07:54:18.846Z,99490.98
2022-12-20T07:59:31.396Z,99498.50
2022-12-20T08:04:34.253Z,99489.20
2022-12-20T08:09:42.323Z,99486.77
2022-12-20T08:14:45.077Z,99496.61
2022-12-20T08:19:47.622Z,99493.75
2022-12-20T08:24:49.328Z,99492.94
2022-12-20T08:29:51.096Z,99479.77
2022-12-20T08:34:53.460Z,99475.80
2022-12-20T08:39:55.190Z,99484.17
2022-12-20T08:44:56.950Z,99486.33
2022-12-20T08:49:58.680Z,99487.04
2022-12-20T08:55:02.050Z,99484.15
2022-12-20T09:00:05.262Z,99474.15
2022-12-20T09:05:07.388Z,99482.80
2022-12-20T09:10:09.855Z,99480.84
2022-12-20T09:15:11.968Z,99473.16
2022-12-20T09:20:13.990Z,99475.08
2022-12-20T09:25:16.098Z,99475.60
2022-12-20T09:30:17.852Z,99476.15
2022-12-20T09:35:23.217Z,99458.45
2022-12-20T09:40:30.145Z,99434.95
2022-12-20T09:45:36.636Z,99424.57
2022-12-20T09:50:50.780Z,99409.96
2022-12-20T09:56:28.030Z,99429.48
2022-12-20T10:01:38.401Z,99439.84
2022-12-20T10:07:05.528Z,99441.11
2022-12-20T10:12:25.861Z,99443.67
2022-12-20T10:17:59.816Z,99436.81
2022-12-20T10:23:01.479Z,99418.45
2022-12-20T10:28:05.314Z,99406.58
2022-12-20T10:33:18.115Z,99402.36
2022-12-20T10:38:20.788Z,99392.07
2022-12-20T10:43:23.485Z,99388.89
2022-12-20T10:48:31.674Z,99384.10
2022-12-20T10:53:33.402Z,99367.77
2022-12-20T10:58:36.961Z,99360.08
2022-12-20T11:03:57.887Z,99359.25
2022-12-20T11:09:18.120Z,99347.65
2022-12-20T11:14:20.466Z,99344.86
2022-12-20T11:19:30.436Z,99341.52
2022-12-20T11:24:54.063Z,99353.09
2022-12-20T11:30:13.034Z,99345.15
2022-12-20T11:35:22.301Z,99320.51
2022-12-20T11:40:32.704Z,99303.42
2022-12-20T11:45:57.063Z,99311.69
2022-12-20T11:51:26.339Z,99315.49
2022-12-20T11:56:43.457Z,99319.10
2022-12-20T12:02:02.239Z,99329.48
2022-12-20T12:07:15.557Z,99323.70
2022-12-20T12:12:38.212Z,99308.70
2022-12-20T12:17:51.625Z,99288.48
2022-12-20T12:23:03.018Z,99291.83
2022-12-20T12:28:05.717Z,99291.86
2022-12-20T12:33:23.986Z,99286.23
2022-12-20T12:38:54.393Z,99295.81
2022-12-20T12:44:18.557Z,99294.98
2022-12-20T12:49:26.182Z,99282.73
2022-12-20T12:54:34.712Z,99289.79
2022-12-20T12:59:36.325Z,99297.56
2022-12-20T13:04:56.065Z,99289.67
2022-12-20T13:09:58.797Z,99277.06
2022-12-20T13:15:00.530Z,99272.48
2022-12-20T13:20:02.341Z,99280.75
2022-12-20T13:25:28.097Z,99285.80
2022-12-20T13:30:30.552Z,99278.33
2022-12-20T13:35:46.349Z,99279.45
2022-12-20T13:40:54.970Z,99287.95
2022-12-20T13:46:08.818Z,99287.23
2022-12-20T13:51:10.723Z,99285.30
2022-12-20T13:56:44.859Z,99277.71
2022-12-20T14:01:52.526Z,99272.92
2022-12-20T14:06:59.766Z,99266.23
2022-12-20T14:12:19.445Z,99267.38
2022-12-20T14:17:39.865Z,99261.85
2022-12-20T14:23:06.838Z,99260.07
2022-12-20T14:28:27.989Z,99278.63
2022-12-20T14:33:41.413Z,99279.54
2022-12-20T14:38:49.542Z,99278.08
2022-12-20T14:43:57.041Z,99263.94
2022-12-20T14:49:14.235Z,99259.55
2022-12-20T14:54:56.676Z,99249.65
2022-12-20T14:59:58.387Z,99247.63
2022-12-20T15:05:01.406Z,99256.71
2022-12-20T15:10:03.279Z,99254.19
2022-12-20T15:15:27.759Z,99267.40
2022-12-20T15:20:27.110Z,99264.70
2022-12-20T15:25:38.065Z,99271.95
2022-12-20T15:30:47.420Z,99264.52
2022-12-20T15:35:49.687Z,99250.90
2022-12-20T15:40:58.085Z,99241.56
2022-12-20T15:45:59.898Z,99231.19
2022-12-20T15:51:01.695Z,99229.88
2022-12-20T15:56:03.595Z,99225.64
2022-12-20T16:01:05.472Z,99220.02
2022-12-20T16:06:12.745Z,99225.36
2022-12-20T16:11:24.647Z,99215.11
2022-12-20T16:16:32.752Z,99211.38
2022-12-20T16:21:40.493Z,99207.83
2022-12-20T16:26:42.440Z,99207.84
2022-12-20T16:31:44.196Z,99195.21
2022-12-20T16:36:55.913Z,99200.17
2022-12-20T16:41:57.790Z,99207.90
2022-12-20T16:46:59.504Z,99190.65
2022-12-20T16:52:01.227Z,99195.40
2022-12-20T16:57:02.860Z,99187.83
2022-12-20T17:02:21.782Z,99193.94
2022-12-20T17:07:24.294Z,99202.98
2022-12-20T17:12:26.033Z,99199.54
2022-12-20T17:17:27.694Z,99199.02
2022-12-20T17:27:49.931Z,99198.84
2022-12-20T17:32:53.458Z,99182.59
2022-12-20T17:37:57.320Z,99177.64
2022-12-20T17:42:59.321Z,99188.59
2022-12-20T17:48:00.987Z,99177.98
2022-12-20T17:53:02.804Z,99175.41
2022-12-20T17:58:04.438Z,99181.40
2022-12-20T18:03:07.258Z,99173.58
2022-12-20T18:08:09.083Z,99170.55
2022-12-20T18:13:10.707Z,99155.88
2022-12-20T18:18:12.358Z,99146.17
2022-12-20T18:23:13.981Z,99144.16
2022-12-20T18:28:15.667Z,99146.73
2022-12-20T18:33:17.311Z,99139.22
2022-12-20T18:38:19.145Z,99138.73
2022-12-20T18:43:22.022Z,99149.67
2022-12-20T18:48:24.980Z,99157.54
2022-12-20T18:53:26.617Z,99153.96
2022-12-20T18:58:28.317Z,99147.14
2022-12-20T19:03:30.484Z,99145.30
2022-12-20T19:08:32.285Z,99142.55
2022-12-20T19:13:34.293Z,99137.09
2022-12-20T19:18:36.353Z,99116.42
2022-12-20T19:23:39.674Z,99110.79
2022-12-20T19:28:42.711Z,99104.46
2022-12-20T19:33:46.839Z,99104.11
2022-12-20T19:38:52.424Z,99105.77
2022-12-20T19:43:55.765Z,99110.70
2022-12-20T19:48:59.009Z,99105.34
2022-12-20T19:54:00.846Z,99116.40
2022-12-20T19:59:03.484Z,99120.95
2022-12-20T20:04:06.187Z,99114.74
2022-12-20T20:09:08.164Z,99116.27
2022-12-20T20:14:10.379Z,99114.38
2022-12-20T20:19:12.126Z,99107.85
2022-12-20T20:24:13.770Z,99101.52
2022-12-20T20:29:15.468Z,99088.89
2022-12-20T20:34:17.127Z,99076.73
2022-12-20T20:39:18.830Z,99078.09
2022-12-20T20:44:20.449Z,99075.52
2022-12-20T20:49:22.099Z,99076.18
2022-12-20T20:54:23.766Z,99068.63
2022-12-20T20:59:25.475Z,99068.25
2022-12-20T21:04:27.315Z,99057.25
2022-12-20T21:09:29.036Z,99043.35
2022-12-20T21:15:10.407Z,99040.23
2022-12-20T21:19:52.461Z,99035.21
2022-12-20T21:24:54.158Z,99024.77
2022-12-20T21:29:55.885Z,99016.21
2022-12-20T21:34:59.445Z,99013.44
